createdAt,value
2017-02-26T00:00:23.412Z,9.60
2017-02-26T00:01:22.461Z,9.87
2017-02-26T00:02:21.580Z,10.57
2017-02-26T00:03:20.587Z,10.02
2017-02-26T00:04:19.756Z,9.48
2017-02-26T00:05:18.812Z,9.77
2017-02-26T00:06:17.552Z,9.03
2017-02-26T00:07:16.720Z,10.20
2017-02-26T00:08:15.441Z,10.07
2017-02-26T00:09:14.710Z,10.35
2017-02-26T00:10:13.446Z,10.17
2017-02-26T00:11:12.450Z,9.48
2017-02-26T00:12:11.576Z,9.93
2017-02-26T00:13:10.678Z,10.47
2017-02-26T00:14:09.650Z,10.25
2017-02-26T00:15:08.601Z,10.28
2017-02-26T00:16:07.644Z,9.93
2017-02-26T00:17:06.407Z,9.28
2017-02-26T00:18:05.697Z,9.02
2017-02-26T00:19:04.543Z,10.92
2017-02-26T00:20:03.469Z,10.05
2017-02-26T00:21:02.691Z,9.57
2017-02-26T00:22:01.440Z,9.90
2017-02-26T00:23:00.165Z,9.52
2017-02-26T00:23:58.875Z,9.98
2017-02-26T00:24:57.798Z,9.23
2017-02-26T00:25:56.665Z,9.90
2017-02-26T00:26:56.382Z,8.97
2017-02-26T00:27:55.119Z,10.22
2017-02-26T00:28:53.869Z,9.97
2017-02-26T00:29:52.800Z,10.07
2017-02-26T00:30:51.496Z,10.28
2017-02-26T00:31:50.387Z,10.40
2017-02-26T00:32:49.665Z,9.90
2017-02-26T00:33:48.309Z,10.37
2017-02-26T00:34:47.007Z,10.85
2017-02-26T00:35:45.690Z,10.00
2017-02-26T00:36:44.443Z,9.60
2017-02-26T00:37:43.343Z,10.52
2017-02-26T00:38:42.660Z,10.23
2017-02-26T00:39:42.130Z,10.55
2017-02-26T00:40:40.827Z,10.53
2017-02-26T00:41:40.126Z,9.77
2017-02-26T00:42:39.235Z,9.13
2017-02-26T00:43:38.165Z,10.98
2017-02-26T00:44:37.359Z,10.18
2017-02-26T00:45:36.052Z,9.95
2017-02-26T00:46:35.263Z,10.35
2017-02-26T00:47:34.385Z,10.12
2017-02-26T00:48:33.577Z,11.40
2017-02-26T00:49:32.278Z,11.00
2017-02-26T00:50:31.237Z,11.45
2017-02-26T00:51:29.910Z,9.90
2017-02-26T00:52:28.621Z,9.75
2017-02-26T00:53:27.665Z,10.58
2017-02-26T00:54:29.793Z,9.53
2017-02-26T00:55:28.923Z,10.05
2017-02-26T00:56:30.604Z,10.12
2017-02-26T00:57:29.315Z,11.28
2017-02-26T00:58:28.151Z,9.28
2017-02-26T00:59:26.847Z,9.32
2017-02-26T01:00:26.574Z,10.17
2017-02-26T01:01:25.276Z,10.80
2017-02-26T01:02:24.247Z,10.35
2017-02-26T01:03:23.123Z,10.67
2017-02-26T01:04:21.838Z,9.87
2017-02-26T01:05:21.552Z,10.15
2017-02-26T01:06:20.641Z,10.30
2017-02-26T01:07:19.560Z,11.63
2017-02-26T01:08:18.566Z,10.48
2017-02-26T01:09:17.630Z,10.25
2017-02-26T01:10:16.351Z,10.75
2017-02-26T01:11:15.364Z,10.62
2017-02-26T01:12:14.295Z,9.90
2017-02-26T01:13:13.300Z,10.40
2017-02-26T01:14:12.541Z,10.25
2017-02-26T01:15:11.462Z,9.82
2017-02-26T01:16:10.432Z,9.20
2017-02-26T01:17:10.019Z,8.85
2017-02-26T01:18:09.064Z,9.85
2017-02-26T01:19:07.817Z,9.62
2017-02-26T01:20:07.192Z,10.00
2017-02-26T01:21:05.884Z,9.00
2017-02-26T01:22:05.038Z,9.30
2017-02-26T01:23:03.824Z,9.60
2017-02-26T01:24:02.552Z,10.63
2017-02-26T01:25:01.255Z,8.75
2017-02-26T01:26:00.452Z,8.47
2017-02-26T01:26:59.494Z,9.55
2017-02-26T01:27:58.433Z,9.55
2017-02-26T01:28:57.176Z,9.45
2017-02-26T01:29:55.931Z,10.20
2017-02-26T01:30:54.655Z,9.57
2017-02-26T01:31:53.716Z,11.15
2017-02-26T01:32:52.960Z,9.97
2017-02-26T01:33:51.670Z,10.45
2017-02-26T01:34:50.411Z,9.47
2017-02-26T01:35:49.506Z,9.87
2017-02-26T01:36:48.236Z,11.17
2017-02-26T01:37:47.219Z,10.15
2017-02-26T01:38:45.917Z,10.88
2017-02-26T01:39:44.630Z,9.72
2017-02-26T01:40:43.427Z,10.17
2017-02-26T01:41:42.159Z,10.07
2017-02-26T01:42:40.860Z,10.38
2017-02-26T01:43:40.304Z,9.92
2017-02-26T01:44:39.339Z,10.63
2017-02-26T01:45:38.194Z,9.75
2017-02-26T01:46:36.947Z,11.40
2017-02-26T01:47:35.676Z,9.88
2017-02-26T01:48:34.395Z,10.47
2017-02-26T01:49:33.330Z,9.65
2017-02-26T01:50:32.378Z,10.75
2017-02-26T01:51:31.072Z,10.60
2017-02-26T01:52:29.821Z,9.90
2017-02-26T01:53:28.846Z,11.60
2017-02-26T01:54:27.571Z,10.53
2017-02-26T01:55:26.556Z,10.57
2017-02-26T01:56:25.299Z,10.27
2017-02-26T01:57:24.035Z,9.65
2017-02-26T01:58:22.918Z,11.15
2017-02-26T01:59:22.044Z,11.10
2017-02-26T02:00:25.019Z,10.97
2017-02-26T02:01:24.139Z,10.63
2017-02-26T02:02:22.884Z,11.17
2017-02-26T02:03:21.559Z,11.10
2017-02-26T02:04:20.828Z,11.07
2017-02-26T02:05:19.568Z,10.02
2017-02-26T02:06:18.313Z,11.50
2017-02-26T02:07:17.228Z,10.22
2017-02-26T02:08:16.257Z,10.87
2017-02-26T02:09:14.992Z,11.68
2017-02-26T02:10:14.004Z,10.90
2017-02-26T02:11:12.884Z,10.37
2017-02-26T02:12:12.247Z,11.12
2017-02-26T02:13:11.363Z,11.25
2017-02-26T02:14:10.484Z,10.77
2017-02-26T02:15:09.220Z,10.47
2017-02-26T02:16:08.435Z,10.70
2017-02-26T02:17:07.186Z,11.00
2017-02-26T02:18:05.949Z,10.85
2017-02-26T02:19:05.228Z,11.88
2017-02-26T02:20:04.180Z,11.75
2017-02-26T02:21:03.108Z,10.38
2017-02-26T02:22:01.872Z,11.28
2017-02-26T02:23:00.598Z,11.17
2017-02-26T02:23:59.878Z,11.40
2017-02-26T02:24:59.111Z,11.58
2017-02-26T02:25:57.804Z,11.18
2017-02-26T02:26:56.860Z,11.90
2017-02-26T02:27:55.626Z,11.05
2017-02-26T02:28:54.342Z,10.67
2017-02-26T02:29:53.060Z,11.43
2017-02-26T02:30:52.033Z,10.75
2017-02-26T02:31:51.037Z,11.27
2017-02-26T02:32:49.771Z,12.42
2017-02-26T02:33:48.927Z,11.43
2017-02-26T02:34:47.675Z,10.88
2017-02-26T02:35:46.387Z,11.92
2017-02-26T02:36:45.366Z,10.87
2017-02-26T02:37:44.160Z,12.02
2017-02-26T02:38:42.904Z,11.37
2017-02-26T02:39:41.664Z,12.12
2017-02-26T02:40:40.397Z,11.85
2017-02-26T02:41:39.359Z,10.55
2017-02-26T02:42:38.445Z,11.73
2017-02-26T02:43:38.220Z,11.42
2017-02-26T02:44:37.320Z,10.90
2017-02-26T02:45:36.055Z,11.95
2017-02-26T02:46:35.269Z,11.65
2017-02-26T02:47:34.320Z,11.25
2017-02-26T02:48:33.608Z,11.67
2017-02-26T02:49:32.770Z,12.17
2017-02-26T02:50:31.936Z,12.28
2017-02-26T02:51:30.704Z,10.32
2017-02-26T02:52:29.451Z,11.22
2017-02-26T02:53:28.386Z,12.02
2017-02-26T02:54:27.996Z,11.65
2017-02-26T02:55:27.378Z,11.45
2017-02-26T02:56:26.636Z,11.27
2017-02-26T02:57:25.386Z,12.10
2017-02-26T02:58:24.381Z,13.08
2017-02-26T02:59:23.092Z,11.53
2017-02-26T03:00:22.111Z,12.10
2017-02-26T03:01:21.121Z,11.30
2017-02-26T03:02:20.136Z,12.18
2017-02-26T03:03:18.876Z,11.82
2017-02-26T03:04:17.616Z,11.72
2017-02-26T03:05:16.579Z,11.72
2017-02-26T03:06:15.731Z,12.90
2017-02-26T03:07:14.445Z,12.93
2017-02-26T03:08:13.223Z,12.67
2017-02-26T03:09:12.193Z,11.78
2017-02-26T03:10:11.341Z,12.20
2017-02-26T03:11:10.110Z,13.03
2017-02-26T03:12:09.364Z,12.65
2017-02-26T03:13:08.420Z,12.88
2017-02-26T03:14:07.193Z,11.95
2017-02-26T03:15:05.919Z,11.57
2017-02-26T03:16:04.704Z,12.20
2017-02-26T03:17:03.833Z,12.83
2017-02-26T03:18:03.225Z,12.03
2017-02-26T03:19:02.406Z,12.60
2017-02-26T03:20:01.924Z,14.25
2017-02-26T03:21:00.623Z,12.40
2017-02-26T03:21:59.383Z,12.55
2017-02-26T03:22:58.464Z,12.82
2017-02-26T03:23:57.583Z,13.40
2017-02-26T03:24:56.638Z,13.27
2017-02-26T03:25:55.391Z,12.52
2017-02-26T03:26:54.341Z,13.58
2017-02-26T03:27:53.081Z,12.67
2017-02-26T03:28:51.842Z,12.85
2017-02-26T03:29:51.056Z,13.10
2017-02-26T03:30:50.137Z,12.62
2017-02-26T03:31:49.311Z,13.17
2017-02-26T03:32:48.348Z,13.88
2017-02-26T03:33:47.095Z,12.02
2017-02-26T03:34:45.831Z,12.78
2017-02-26T03:35:44.839Z,13.75
2017-02-26T03:36:43.769Z,13.22
2017-02-26T03:37:42.684Z,12.47
2017-02-26T03:38:41.991Z,13.37
2017-02-26T03:39:41.201Z,13.43
2017-02-26T03:40:40.378Z,12.83
2017-02-26T03:41:39.746Z,13.25
2017-02-26T03:42:38.735Z,12.52
2017-02-26T03:43:37.517Z,13.25
2017-02-26T03:44:36.247Z,13.23
2017-02-26T03:45:35.180Z,13.58
2017-02-26T03:46:35.182Z,13.60
2017-02-26T03:47:34.233Z,13.62
2017-02-26T03:48:33.171Z,13.78
2017-02-26T03:49:32.192Z,13.87
2017-02-26T03:50:30.928Z,13.73
2017-02-26T03:51:29.874Z,14.28
2017-02-26T03:52:28.551Z,14.15
2017-02-26T03:53:27.651Z,12.83
2017-02-26T03:54:26.418Z,13.25
2017-02-26T03:55:25.135Z,15.13
2017-02-26T03:56:23.869Z,13.70
2017-02-26T03:57:22.959Z,14.20
2017-02-26T03:58:21.680Z,15.90
2017-02-26T03:59:20.840Z,14.92
2017-02-26T04:00:19.889Z,14.37
2017-02-26T04:01:18.622Z,14.48
2017-02-26T04:02:17.369Z,13.47
2017-02-26T04:03:16.132Z,14.63
2017-02-26T04:04:15.207Z,14.80
2017-02-26T04:05:14.425Z,14.62
2017-02-26T04:06:13.456Z,15.10
2017-02-26T04:07:12.244Z,15.13
2017-02-26T04:08:11.024Z,15.70
2017-02-26T04:09:09.740Z,15.03
2017-02-26T04:10:09.080Z,15.87
2017-02-26T04:11:08.040Z,15.15
2017-02-26T04:12:07.229Z,14.85
2017-02-26T04:13:06.157Z,14.13
2017-02-26T04:14:05.091Z,14.53
2017-02-26T04:15:03.841Z,14.42
2017-02-26T04:16:02.573Z,14.78
2017-02-26T04:17:01.710Z,14.35
2017-02-26T04:18:00.765Z,15.77
2017-02-26T04:18:59.524Z,15.78
2017-02-26T04:19:58.225Z,15.20
2017-02-26T04:20:57.006Z,15.18
2017-02-26T04:21:55.755Z,15.35
2017-02-26T04:22:54.715Z,16.25
2017-02-26T04:23:53.458Z,15.80
2017-02-26T04:24:52.421Z,14.77
2017-02-26T04:25:51.144Z,15.27
2017-02-26T04:26:50.275Z,16.38
2017-02-26T04:27:49.336Z,16.23
2017-02-26T04:28:48.703Z,15.08
2017-02-26T04:29:47.439Z,14.40
2017-02-26T04:30:46.698Z,14.03
2017-02-26T04:31:45.535Z,14.15
2017-02-26T04:32:44.297Z,14.75
2017-02-26T04:33:43.049Z,14.40
2017-02-26T04:34:42.037Z,15.58
2017-02-26T04:35:40.742Z,14.45
2017-02-26T04:36:39.486Z,15.05
2017-02-26T04:37:38.211Z,14.90
2017-02-26T04:38:37.155Z,14.13
2017-02-26T04:39:35.868Z,15.15
2017-02-26T04:40:35.048Z,15.03
2017-02-26T04:41:34.167Z,15.72
2017-02-26T04:42:32.937Z,14.72
2017-02-26T04:43:31.655Z,15.72
2017-02-26T04:44:30.362Z,15.45
2017-02-26T04:45:29.268Z,15.25
2017-02-26T04:46:28.629Z,14.92
2017-02-26T04:47:27.552Z,16.02
2017-02-26T04:48:26.288Z,14.47
2017-02-26T04:49:25.038Z,14.55
2017-02-26T04:50:23.750Z,14.27
2017-02-26T04:51:22.493Z,15.93
2017-02-26T04:52:22.263Z,16.43
2017-02-26T04:53:21.173Z,15.47
2017-02-26T04:54:19.906Z,15.07
2017-02-26T04:55:18.654Z,15.47
2017-02-26T04:56:18.132Z,15.33
2017-02-26T04:57:16.957Z,17.13
2017-02-26T04:58:16.111Z,16.05
2017-02-26T04:59:14.883Z,16.68
2017-02-26T05:00:13.672Z,15.85
2017-02-26T05:01:12.393Z,16.22
2017-02-26T05:02:11.140Z,16.55
2017-02-26T05:03:10.311Z,16.48
2017-02-26T05:04:09.689Z,15.35
2017-02-26T05:05:08.404Z,15.22
2017-02-26T05:06:07.793Z,16.42
2017-02-26T05:07:06.527Z,15.27
2017-02-26T05:08:05.246Z,15.13
2017-02-26T05:09:04.451Z,15.27
2017-02-26T05:10:03.675Z,16.30
2017-02-26T05:11:02.724Z,16.83
2017-02-26T05:12:01.444Z,15.88
2017-02-26T05:13:00.159Z,15.58
2017-02-26T05:13:58.922Z,15.20
2017-02-26T05:14:57.957Z,16.22
2017-02-26T05:15:57.182Z,15.02
2017-02-26T05:16:55.902Z,16.37
2017-02-26T05:17:54.633Z,17.13
2017-02-26T05:18:53.314Z,15.78
2017-02-26T05:19:52.081Z,15.35
2017-02-26T05:20:50.829Z,15.32
2017-02-26T05:21:49.870Z,16.57
2017-02-26T05:22:48.643Z,16.23
2017-02-26T05:23:47.317Z,15.73
2017-02-26T05:24:46.060Z,14.78
2017-02-26T05:25:44.761Z,14.97
2017-02-26T05:26:43.467Z,14.52
2017-02-26T05:27:42.400Z,15.05
2017-02-26T05:28:41.121Z,14.33
2017-02-26T05:29:40.128Z,15.07
2017-02-26T05:30:39.047Z,15.83
2017-02-26T05:31:37.760Z,14.95
2017-02-26T05:32:36.694Z,14.93
2017-02-26T05:33:35.790Z,14.80
2017-02-26T05:34:34.888Z,16.25
2017-02-26T05:35:33.629Z,15.07
2017-02-26T05:36:32.370Z,15.02
2017-02-26T05:37:31.319Z,16.03
2017-02-26T05:38:30.070Z,14.90
2017-02-26T05:39:29.400Z,15.27
2017-02-26T05:40:28.125Z,17.13
2017-02-26T05:41:26.901Z,15.65
2017-02-26T05:42:25.795Z,15.88
2017-02-26T05:43:24.863Z,16.72
2017-02-26T05:44:23.587Z,16.08
2017-02-26T05:45:22.658Z,15.03
2017-02-26T05:46:21.996Z,16.52
2017-02-26T05:47:22.820Z,16.63
2017-02-26T05:48:21.566Z,17.15
2017-02-26T05:49:20.269Z,16.15
2017-02-26T05:50:19.296Z,16.08
2017-02-26T05:51:18.701Z,15.68
2017-02-26T05:52:17.426Z,14.12
2017-02-26T05:53:16.551Z,16.93
2017-02-26T05:54:15.296Z,15.08
2017-02-26T05:55:14.039Z,15.77
2017-02-26T05:56:12.821Z,15.52
2017-02-26T05:57:12.617Z,15.85
2017-02-26T05:58:11.542Z,17.48
2017-02-26T05:59:10.248Z,14.57
2017-02-26T06:00:09.128Z,15.47
2017-02-26T06:01:07.867Z,17.07
2017-02-26T06:02:07.163Z,15.13
2017-02-26T06:03:06.289Z,16.12
2017-02-26T06:04:05.019Z,15.17
2017-02-26T06:05:04.144Z,16.37
2017-02-26T06:06:02.846Z,16.53
2017-02-26T06:07:01.574Z,17.03
2017-02-26T06:08:00.301Z,16.57
2017-02-26T06:08:59.795Z,15.93
2017-02-26T06:09:58.808Z,15.02
2017-02-26T06:10:57.537Z,16.53
2017-02-26T06:11:56.233Z,15.62
2017-02-26T06:12:54.912Z,15.68
2017-02-26T06:13:53.659Z,16.32
2017-02-26T06:14:52.789Z,16.40
2017-02-26T06:15:51.961Z,15.12
2017-02-26T06:16:50.692Z,16.93
2017-02-26T06:17:49.757Z,14.90
2017-02-26T06:18:48.722Z,16.33
2017-02-26T06:19:47.927Z,15.65
2017-02-26T06:20:46.947Z,16.87
2017-02-26T06:21:45.636Z,16.02
2017-02-26T06:22:44.660Z,16.60
2017-02-26T06:23:43.386Z,16.12
2017-02-26T06:24:42.134Z,16.45
2017-02-26T06:25:40.839Z,17.67
2017-02-26T06:26:39.823Z,14.73
2017-02-26T06:27:38.491Z,16.60
2017-02-26T06:28:37.184Z,16.27
2017-02-26T06:29:36.246Z,16.10
2017-02-26T06:30:34.918Z,15.50
2017-02-26T06:31:33.630Z,15.37
2017-02-26T06:32:32.896Z,16.77
2017-02-26T06:33:31.599Z,16.17
2017-02-26T06:34:30.473Z,16.35
2017-02-26T06:35:29.246Z,15.62
2017-02-26T06:36:28.644Z,16.05
2017-02-26T06:37:27.360Z,16.07
2017-02-26T06:38:26.896Z,16.38
2017-02-26T06:39:25.603Z,17.40
2017-02-26T06:40:24.292Z,17.10
2017-02-26T06:41:23.041Z,15.67
2017-02-26T06:42:22.395Z,16.47
2017-02-26T06:43:21.267Z,16.45
2017-02-26T06:44:21.303Z,15.92
2017-02-26T06:45:20.024Z,16.67
2017-02-26T06:46:19.677Z,16.55
2017-02-26T06:47:18.359Z,16.52
2017-02-26T06:48:17.052Z,15.92
2017-02-26T06:49:15.772Z,15.70
2017-02-26T06:50:14.901Z,14.72
2017-02-26T06:51:13.608Z,16.13
2017-02-26T06:52:12.679Z,16.08
2017-02-26T06:53:11.414Z,16.75
2017-02-26T06:54:10.315Z,15.58
2017-02-26T06:55:09.004Z,16.07
2017-02-26T06:56:08.172Z,15.70
2017-02-26T06:57:06.913Z,14.98
2017-02-26T06:58:06.176Z,16.02
2017-02-26T06:59:04.903Z,15.17
2017-02-26T07:00:03.624Z,16.10
2017-02-26T07:01:02.331Z,17.73
2017-02-26T07:02:01.477Z,15.07
2017-02-26T07:03:00.540Z,17.32
2017-02-26T07:03:59.577Z,16.38
2017-02-26T07:04:58.332Z,16.17
2017-02-26T07:05:57.016Z,16.05
2017-02-26T07:06:55.761Z,16.68
2017-02-26T07:07:55.051Z,16.75
2017-02-26T07:08:53.767Z,15.53
2017-02-26T07:09:53.206Z,16.67
2017-02-26T07:10:51.934Z,15.58
2017-02-26T07:11:50.633Z,16.20
2017-02-26T07:12:49.524Z,16.72
2017-02-26T07:13:48.679Z,16.40
2017-02-26T07:14:47.855Z,15.77
2017-02-26T07:15:46.617Z,17.27
2017-02-26T07:16:45.705Z,16.47
2017-02-26T07:17:44.439Z,17.33
2017-02-26T07:18:43.180Z,16.05
2017-02-26T07:19:42.243Z,16.85
2017-02-26T07:20:40.956Z,16.07
2017-02-26T07:21:40.116Z,17.98
2017-02-26T07:22:39.085Z,16.63
2017-02-26T07:23:37.809Z,16.15
2017-02-26T07:24:36.904Z,15.80
2017-02-26T07:25:35.889Z,16.47
2017-02-26T07:26:34.644Z,15.93
2017-02-26T07:27:33.331Z,15.93
2017-02-26T07:28:32.071Z,16.67
2017-02-26T07:29:30.793Z,18.08
2017-02-26T07:30:29.501Z,15.90
2017-02-26T07:31:28.444Z,15.37
2017-02-26T07:32:27.129Z,15.57
2017-02-26T07:33:26.299Z,14.92
2017-02-26T07:34:25.049Z,15.82
2017-02-26T07:35:23.766Z,16.65
2017-02-26T07:36:22.431Z,17.05
2017-02-26T07:37:21.589Z,16.10
2017-02-26T07:38:20.300Z,16.52
2017-02-26T07:39:19.040Z,16.30
2017-02-26T07:40:17.726Z,15.93
2017-02-26T07:41:16.573Z,16.83
2017-02-26T07:42:15.278Z,16.68
2017-02-26T07:43:14.428Z,16.00
2017-02-26T07:44:13.357Z,15.32
2017-02-26T07:45:12.651Z,15.45
2017-02-26T07:46:12.369Z,16.00
2017-02-26T07:47:11.103Z,15.37
2017-02-26T07:48:09.819Z,15.13
2017-02-26T07:49:08.933Z,16.30
2017-02-26T07:50:07.642Z,16.48
2017-02-26T07:51:07.415Z,15.20
2017-02-26T07:52:06.131Z,15.38
2017-02-26T07:53:04.796Z,14.82
2017-02-26T07:54:03.800Z,15.78
2017-02-26T07:55:02.835Z,15.77
2017-02-26T07:56:01.549Z,15.55
2017-02-26T07:57:01.480Z,15.67
2017-02-26T07:58:00.683Z,14.23
2017-02-26T07:58:59.439Z,14.93
2017-02-26T07:59:58.228Z,15.72
2017-02-26T08:00:57.299Z,16.62
2017-02-26T08:01:56.262Z,14.42
2017-02-26T08:02:55.012Z,15.05
2017-02-26T08:03:53.745Z,14.08
2017-02-26T08:04:52.452Z,16.60
2017-02-26T08:05:55.040Z,15.88
2017-02-26T08:06:53.964Z,16.40
2017-02-26T08:07:55.184Z,15.88
2017-02-26T08:08:54.702Z,13.93
2017-02-26T08:09:53.715Z,14.62
2017-02-26T08:10:52.487Z,14.90
2017-02-26T08:11:51.533Z,15.00
2017-02-26T08:12:50.671Z,14.62
2017-02-26T08:13:49.430Z,24.70
2017-02-26T08:14:48.364Z,27.35
2017-02-26T08:15:47.474Z,17.60
2017-02-26T08:16:46.292Z,15.87
2017-02-26T08:17:47.112Z,15.45
2017-02-26T08:18:46.045Z,15.75
2017-02-26T08:19:44.964Z,14.85
2017-02-26T08:20:43.679Z,15.38
2017-02-26T08:21:42.593Z,16.30
2017-02-26T08:22:41.669Z,15.67
2017-02-26T08:23:40.400Z,13.80
2017-02-26T08:24:40.120Z,14.17
2017-02-26T08:25:39.864Z,15.07
2017-02-26T08:26:38.756Z,14.85
2017-02-26T08:27:37.531Z,14.37
2017-02-26T08:28:36.578Z,14.13
2017-02-26T08:29:35.687Z,15.58
2017-02-26T08:30:34.435Z,16.13
2017-02-26T08:31:33.167Z,15.63
2017-02-26T08:32:32.214Z,14.73
2017-02-26T08:33:31.300Z,13.70
2017-02-26T08:34:29.990Z,14.67
2017-02-26T08:35:29.204Z,13.35
2017-02-26T08:36:28.029Z,14.93
2017-02-26T08:37:27.061Z,13.00
2017-02-26T08:38:25.825Z,13.28
2017-02-26T08:39:24.643Z,12.97
2017-02-26T08:40:23.384Z,13.37
2017-02-26T08:41:22.348Z,14.37
2017-02-26T08:42:21.455Z,13.17
2017-02-26T08:43:20.147Z,12.95
2017-02-26T08:44:18.853Z,13.83
2017-02-26T08:45:17.539Z,13.98
2017-02-26T08:46:16.751Z,12.92
2017-02-26T08:47:15.724Z,12.80
2017-02-26T08:48:15.433Z,14.42
2017-02-26T08:49:14.352Z,12.83
2017-02-26T08:50:13.079Z,13.50
2017-02-26T08:51:12.376Z,13.05
2017-02-26T08:52:11.445Z,12.58
2017-02-26T08:53:10.491Z,12.90
2017-02-26T08:54:09.224Z,13.63
2017-02-26T08:55:08.433Z,12.30
2017-02-26T08:56:07.596Z,11.75
2017-02-26T08:57:06.368Z,11.92
2017-02-26T08:58:05.120Z,13.70
2017-02-26T08:59:04.393Z,13.53
2017-02-26T09:00:06.579Z,13.88
2017-02-26T09:01:06.324Z,13.20
2017-02-26T09:02:05.579Z,11.92
2017-02-26T09:03:05.021Z,14.15
2017-02-26T09:04:04.601Z,14.05
2017-02-26T09:05:04.024Z,12.73
2017-02-26T09:06:02.816Z,12.97
2017-02-26T09:07:02.011Z,13.18
2017-02-26T09:08:00.972Z,12.27
2017-02-26T09:09:00.458Z,13.27
2017-02-26T09:10:05.106Z,13.80
2017-02-26T09:11:05.030Z,11.78
2017-02-26T09:12:04.118Z,11.83
2017-02-26T09:13:04.217Z,12.53
2017-02-26T09:14:04.077Z,12.77
2017-02-26T09:15:04.065Z,12.65
2017-02-26T09:16:02.861Z,12.52
2017-02-26T09:17:03.486Z,14.05
2017-02-26T09:18:02.217Z,12.68
2017-02-26T09:19:01.340Z,13.32
2017-02-26T09:20:00.060Z,12.28
2017-02-26T09:20:59.408Z,12.73
2017-02-26T09:21:59.223Z,12.70
2017-02-26T09:22:58.000Z,13.33
2017-02-26T09:23:56.996Z,12.73
2017-02-26T09:24:56.513Z,13.65
2017-02-26T09:25:55.365Z,12.52
2017-02-26T09:26:54.347Z,13.40
2017-02-26T09:27:53.143Z,12.60
2017-02-26T09:28:52.669Z,12.77
2017-02-26T09:29:51.384Z,13.55
2017-02-26T09:30:50.218Z,13.45
2017-02-26T09:31:49.209Z,12.78
2017-02-26T09:32:48.255Z,12.65
2017-02-26T09:33:47.611Z,13.05
2017-02-26T09:34:46.721Z,13.78
2017-02-26T09:35:46.050Z,13.35
2017-02-26T09:36:44.792Z,12.37
2017-02-26T09:37:43.560Z,12.73
2017-02-26T09:38:43.388Z,13.32
2017-02-26T09:39:42.502Z,12.82
2017-02-26T09:40:41.786Z,13.53
2017-02-26T09:41:40.929Z,12.65
2017-02-26T09:42:41.137Z,12.85
2017-02-26T09:43:40.412Z,12.93
2017-02-26T09:44:39.834Z,13.18
2017-02-26T09:45:39.004Z,13.08
2017-02-26T09:46:52.799Z,12.98
2017-02-26T09:47:53.121Z,12.93
2017-02-26T09:48:52.166Z,13.92
2017-02-26T09:49:51.524Z,12.95
2017-02-26T09:50:50.293Z,13.52
2017-02-26T09:51:49.281Z,13.88
2017-02-26T09:52:49.656Z,13.35
2017-02-26T09:53:49.146Z,12.53
2017-02-26T09:54:48.294Z,14.55
2017-02-26T09:55:48.217Z,13.55
2017-02-26T09:56:50.384Z,12.22
2017-02-26T09:57:50.477Z,13.48
2017-02-26T09:58:49.408Z,12.38
2017-02-26T09:59:48.473Z,12.98
2017-02-26T10:00:49.296Z,14.15
2017-02-26T10:01:48.448Z,14.20
2017-02-26T10:02:47.254Z,13.50
2017-02-26T10:03:46.346Z,12.43
2017-02-26T10:04:46.622Z,12.35
2017-02-26T10:05:45.650Z,12.75
2017-02-26T10:06:45.189Z,14.15
2017-02-26T10:07:44.122Z,13.82
2017-02-26T10:08:43.325Z,16.38
2017-02-26T10:09:42.456Z,12.48
2017-02-26T10:10:41.421Z,12.95
2017-02-26T10:11:40.134Z,11.90
2017-02-26T10:12:39.543Z,13.53
2017-02-26T10:13:38.285Z,14.62
2017-02-26T10:14:37.323Z,14.23
2017-02-26T10:15:36.616Z,11.90
2017-02-26T10:16:35.955Z,12.92
2017-02-26T10:17:34.869Z,14.85
2017-02-26T10:18:35.525Z,12.55
2017-02-26T10:19:34.423Z,12.48
2017-02-26T10:20:33.470Z,13.10
2017-02-26T10:21:32.387Z,12.40
2017-02-26T10:22:31.115Z,12.07
2017-02-26T10:23:29.847Z,14.27
2017-02-26T10:24:29.738Z,27.15
2017-02-26T10:25:28.500Z,13.80
2017-02-26T10:26:27.253Z,25.52
2017-02-26T10:27:26.427Z,32.07
2017-02-26T10:28:27.932Z,15.40
2017-02-26T10:29:26.635Z,14.38
2017-02-26T10:30:26.187Z,23.77
2017-02-26T10:31:24.934Z,11.47
2017-02-26T10:32:23.879Z,11.27
2017-02-26T10:33:22.831Z,12.60
2017-02-26T10:34:21.771Z,16.37
2017-02-26T10:35:21.255Z,13.38
2017-02-26T10:36:20.606Z,11.72
2017-02-26T10:37:19.315Z,11.47
2017-02-26T10:38:18.818Z,10.95
2017-02-26T10:39:17.724Z,11.00
2017-02-26T10:40:16.491Z,11.75
2017-02-26T10:41:15.379Z,10.85
2017-02-26T10:42:14.320Z,9.78
2017-02-26T10:43:13.307Z,10.15
2017-02-26T10:44:12.154Z,10.07
2017-02-26T10:45:10.831Z,10.40
2017-02-26T10:46:09.924Z,9.33
2017-02-26T10:47:08.623Z,10.58
2017-02-26T10:48:07.785Z,10.63
2017-02-26T10:49:06.718Z,9.10
2017-02-26T10:50:06.461Z,9.57
2017-02-26T10:51:05.449Z,10.42
2017-02-26T10:52:04.435Z,10.07
2017-02-26T10:53:03.155Z,10.83
2017-02-26T10:54:02.562Z,9.83
2017-02-26T10:55:01.620Z,10.37
2017-02-26T10:56:01.327Z,10.20
2017-02-26T10:57:00.362Z,9.40
2017-02-26T10:57:59.095Z,10.40
2017-02-26T10:58:58.492Z,9.23
2017-02-26T10:59:57.719Z,10.13
2017-02-26T11:00:56.625Z,9.13
2017-02-26T11:01:55.559Z,9.80
2017-02-26T11:02:56.019Z,9.95
2017-02-26T11:03:54.746Z,10.00
2017-02-26T11:04:53.373Z,9.32
2017-02-26T11:05:52.535Z,9.77
2017-02-26T11:06:51.439Z,10.55
2017-02-26T11:07:50.190Z,11.43
2017-02-26T11:08:49.471Z,10.27
2017-02-26T11:09:48.383Z,9.10
2017-02-26T11:10:47.840Z,9.13
2017-02-26T11:11:47.904Z,9.00
2017-02-26T11:12:46.883Z,9.45
2017-02-26T11:13:45.649Z,9.43
2017-02-26T11:14:44.562Z,9.18
2017-02-26T11:15:43.830Z,8.93
2017-02-26T11:16:42.915Z,9.78
2017-02-26T11:17:44.033Z,9.73
2017-02-26T11:18:43.363Z,9.50
2017-02-26T11:19:42.455Z,8.20
2017-02-26T11:20:41.324Z,9.65
2017-02-26T11:21:40.422Z,8.77
2017-02-26T11:22:39.200Z,8.95
2017-02-26T11:23:38.955Z,8.52
2017-02-26T11:24:38.137Z,9.33
2017-02-26T11:25:36.724Z,9.25
2017-02-26T11:26:35.767Z,10.20
2017-02-26T11:27:35.139Z,7.80
2017-02-26T11:28:33.798Z,8.65
2017-02-26T11:29:32.515Z,9.07
2017-02-26T11:30:31.183Z,8.72
2017-02-26T11:31:29.921Z,9.30
2017-02-26T11:32:29.367Z,8.98
2017-02-26T11:33:28.334Z,8.80
2017-02-26T11:34:27.908Z,8.38
2017-02-26T11:35:26.625Z,7.65
2017-02-26T11:36:25.293Z,8.60
2017-02-26T11:37:24.653Z,7.95
2017-02-26T11:38:24.433Z,9.03
2017-02-26T11:39:23.028Z,8.08
2017-02-26T11:40:21.681Z,8.72
2017-02-26T11:41:20.340Z,8.32
2017-02-26T11:42:19.630Z,8.37
2017-02-26T11:43:18.979Z,8.05
2017-02-26T11:44:18.280Z,7.85
2017-02-26T11:45:17.017Z,8.42
2017-02-26T11:46:19.042Z,7.88
2017-02-26T11:47:17.722Z,8.18
2017-02-26T11:48:16.427Z,8.10
2017-02-26T11:49:15.669Z,9.22
2017-02-26T11:50:14.335Z,9.05
2017-02-26T11:51:13.876Z,8.07
2017-02-26T11:52:12.668Z,8.40
2017-02-26T11:53:11.362Z,9.83
2017-02-26T11:54:09.992Z,8.85
2017-02-26T11:55:09.070Z,7.83
2017-02-26T11:56:10.012Z,9.17
2017-02-26T11:57:09.046Z,7.78
2017-02-26T11:58:07.951Z,8.62
2017-02-26T11:59:06.586Z,8.78
2017-02-26T12:00:05.877Z,11.20
2017-02-26T12:01:04.579Z,9.33
2017-02-26T12:02:03.268Z,8.82
2017-02-26T12:03:01.971Z,8.10
2017-02-26T12:04:01.027Z,8.65
2017-02-26T12:04:59.683Z,8.08
2017-02-26T12:05:58.351Z,7.75
2017-02-26T12:06:57.038Z,7.05
2017-02-26T12:07:55.691Z,6.40
2017-02-26T12:08:54.363Z,6.70
2017-02-26T12:09:53.683Z,5.73
2017-02-26T12:10:52.365Z,6.22
2017-02-26T12:11:51.023Z,5.20
2017-02-26T12:12:49.631Z,5.27
2017-02-26T12:13:48.192Z,7.73
2017-02-26T12:14:46.878Z,7.90
2017-02-26T12:15:45.511Z,7.98
2017-02-26T12:16:44.671Z,8.88
2017-02-26T12:17:43.382Z,8.13
2017-02-26T12:18:42.063Z,7.17
2017-02-26T12:19:41.046Z,8.30
2017-02-26T12:20:39.690Z,7.95
2017-02-26T12:21:40.946Z,8.50
2017-02-26T12:22:40.023Z,7.63
2017-02-26T12:23:38.634Z,7.72
2017-02-26T12:24:37.266Z,7.37
2017-02-26T12:25:36.222Z,7.63
2017-02-26T12:26:34.766Z,6.47
2017-02-26T12:27:33.384Z,6.75
2017-02-26T12:28:32.383Z,6.88
2017-02-26T12:29:31.010Z,6.08
2017-02-26T12:30:30.081Z,7.93
2017-02-26T12:31:31.836Z,6.22
2017-02-26T12:32:30.374Z,7.20
2017-02-26T12:33:33.750Z,6.60
2017-02-26T12:34:32.379Z,7.28
2017-02-26T12:35:30.944Z,6.62
2017-02-26T12:36:29.559Z,6.47
2017-02-26T12:37:32.562Z,5.80
2017-02-26T12:38:31.164Z,6.12
2017-02-26T12:39:30.647Z,5.02
2017-02-26T12:40:29.247Z,6.23
2017-02-26T12:41:27.882Z,5.00
2017-02-26T12:42:26.480Z,4.98
2017-02-26T12:43:25.062Z,5.07
2017-02-26T12:44:23.679Z,4.87
2017-02-26T12:45:22.798Z,4.40